Tiempo atmosférico en la estación meteorológica de Vejer De La Frontera, Cádiz (160 m.)



Fecha
DESCASC
Temp. máxima en grados centígrados (hora)
DESCASC
Temp. mínima en grados centígrados (hora)
DESCASC
Temp. media en grados centígrados
DESCASC
Racha de viento máxima en m/sg (hora)
DESCASC
Velocidad máxima media en intervalos de 10 minutos(hora)
DESCASC
Precipitaciones diarias en mm
DESCASC
Precipitaciones de 00:00 a 06:00 en mm
DESCASC
Precipitaciones de 06:00 a 12:00 en mm
DESCASC
Precipitaciones de 12:00 a 18:00 en mm
DESCASC
Precipitaciones de 18:00 a 24:00 en mm
DESCASC
15-11-2018 21.5 (14:00) 13.9 (07:40) 17.7 10.28 (02:00) 4.17 (01:30) 0 0 0 0 0
14-11-2018 18.8 (14:20) 15.1 (05:20) 16.9 16.67 (10:40) 6.39 (10:40) 0 0 0 0 0
13-11-2018 19.9 (13:40) 12.9 (08:40) 16.4 11.11 (15:20) 4.72 (15:20) 0.1 0.1 0 0 0
12-11-2018 16.4 (15:00) 12.9 (10:40) 14.6 9.17 (07:10) 4.17 (07:10) 5.2 0 5.2 0 0
11-11-2018 21.2 (12:50) 14.6 (00:00) 17.9 6.11 (16:50) 3.61 (16:40) 0 0 0 0 0
10-11-2018 18.4 (14:20) 12.6 (00:00) 15.5 7.5 (14:00) 4.17 (14:00) 0 0 0 0 0
09-11-2018 17.1 (14:50) 10.6 (00:00) 13.9 8.06 (15:20) 3.89 (15:20) 0 0 0 0 0
08-11-2018 17.1 (12:20) 13.2 (00:00) 15.2 11.67 (15:00) 6.11 (15:00) 10.3 0 0 5.8 4.5
07-11-2018 16 (14:20) 12.3 (00:00) 14.2 10 (12:20) 6.94 (13:20) 1.6 0 0 0.9 0.7
06-11-2018 18.1 (15:40) 9.8 (00:00) 14 5.83 (15:50) 3.06 (15:40) 0 0 0 0 0
05-11-2018 16.3 (15:20) 10.7 (00:00) 13.5 16.67 (04:40) 10.83 (04:40) 15.9 13.1 2.7 0.1 0
04-11-2018 19.2 (15:20) 13 (00:00) 16.1 7.78 (18:00) 4.72 (18:00) 0 0 0 0 0
03-11-2018 20.6 (14:50) 12.5 (00:00) 16.6 6.39 (03:30) 3.89 (17:20) 0 0 0 0 0
02-11-2018 17.3 (15:20) 11.7 (00:00) 14.5 7.78 (16:50) 4.72 (16:50) 0 0 0 0 0
01-11-2018 17.6 (15:30) 8.3 (00:00) 13 6.94 (16:00) 3.89 (17:20) 0 0 0 0 0
31-10-2018 16.3 (19:00) 9.9 (00:00) 13.1 20 (18:00) 11.94 (19:20) 65 0 0.5 64.4 0.1
30-10-2018 14.7 (17:10) 11.4 (00:00) 13 16.67 (10:00) 9.17 (07:00) 53.7 3.9 36.6 13.2 0
29-10-2018 15.6 (15:30) 8.6 (00:00) 12.1 13.61 (15:00) 7.5 (23:50) 0.1 0 0 0 0.1
28-10-2018 14.5 (14:00) 8.5 (00:00) 11.5 11.11 (15:20) 5 (13:30) 0.2 0 0 0.2 0
27-10-2018 20.3 (13:50) 14.4 (00:00) 17.3 12.78 (15:30) 6.67 (22:30) 0.3 0 0.3 0 0
26-10-2018 21.7 (15:20) 14.6 (00:00) 18.2 7.5 (18:10) 4.17 (18:10) 3.2 0 3.2 0 0
25-10-2018 27.2 (16:00) 15.7 (00:00) 21.5 6.67 (11:40) 3.33 (11:40) 0 0 0 0 0
24-10-2018 24.5 (16:20) 16.9 (00:00) 20.7 11.39 (02:00) 5.83 (01:10) 0 0 0 0 0
23-10-2018 22.4 (13:30) 18 (00:00) 20.2 11.94 (09:50) 5.28 (09:50) 0.3 0 0.3 0 0
22-10-2018 26.6 (14:40) 17.8 (00:00) 22.2 7.5 (11:20) 3.33 (11:20) 0 0 0 0 0
21-10-2018 24.2 (14:30) 16.6 (00:00) 20.4 6.94 (23:50) 3.33 (23:50) 0 0 0 0 0
20-10-2018 21.3 (17:50) 14.4 (00:00) 17.8 10.83 (13:40) 4.44 (14:00) 3 2.4 0.5 0.1 0
19-10-2018 20.3 (15:00) 12.3 (00:00) 16.3 9.44 (15:00) 4.72 (13:10) 0.6 0 0 0 0.6
18-10-2018 17.7 (00:10) 12.8 (00:00) 15.3 13.61 (06:40) 5.28 (13:50) 12.6 0 10.8 1.8 0

Gráficas

Temp. máximas Temp. mínimas Temp. medias Precipitaciones Rachas de viento máximas Velocidades máximas media en intervalos de 10 minutos

Datos horarios

Fecha y hora oficial Temperatura (ºC) Velocidad del viento (km/h) Dirección del viento Racha (km/h) Dirección de racha Precipitación (mm) Presión (hPa) Tendencia (hPa) Humedad (%)
2018-11-16 23:00:00 14.9 9 Este 33 Este 0 -- -- 89
2018-11-16 22:00:00 15.1 10 Este 26 Este 0 -- -- 86
2018-11-16 21:00:00 15.3 14 Este 28 Este 0 -- -- 86
2018-11-16 20:00:00 15.3 8 Este 21 Este 0 -- -- 86
2018-11-16 19:00:00 15.6 11 Este 28 Este 0 -- -- 85
2018-11-16 18:00:00 16.8 13 Este 28 Este 0 -- -- 80
2018-11-16 17:00:00 16.9 15 Este 31 Este 0 -- -- 78
2018-11-16 16:00:00 18.2 17 Este 43 Este 0 -- -- 71
2018-11-16 15:00:00 18 17 Este 37 Este 0 -- -- 72
2018-11-16 14:00:00 17.2 21 Este 41 Este 0 -- -- 75
2018-11-16 13:00:00 17 16 Este 32 Este 0 -- -- 77
2018-11-16 12:00:00 17.6 14 Este 40 Este 0 -- -- 76
2018-11-16 11:00:00 16.3 21 Este 40 Este 0 -- -- 80
2018-11-16 10:00:00 15.9 15 Este 32 Este 0 -- -- 84
2018-11-16 09:00:00 14.8 12 Este 26 Este 0 -- -- 88
2018-11-16 08:00:00 14.3 14 Este 28 Este 0 -- -- 89
2018-11-16 07:00:00 14 12 Este 29 Este 0 -- -- 88
2018-11-16 06:00:00 13.7 12 Este 27 Este 0 -- -- 89
2018-11-16 05:00:00 13.8 11 Este 26 Este 0 -- -- 89
2018-11-16 04:00:00 14.2 13 Este 30 Este 0 -- -- 87
2018-11-16 03:00:00 14.4 12 Este 31 Este 0 -- -- 88
2018-11-16 02:00:00 14.5 12 Este 32 Este 0 -- -- 85
2018-11-16 01:00:00 14.6 13 Este 34 Este 0 -- -- 84
2018-11-16 00:00:00 15 15 Este 32 Este 0 -- -- 83
2018-11-15 23:00:00 15.1 12 Este 27 Este 0 -- -- 79
2018-11-15 22:00:00 15.1 10 Este 23 Este 0 -- -- 78
2018-11-15 21:00:00 15 8 Este 23 Este 0 -- -- 76
2018-11-15 20:00:00 15.7 9 Este 26 Este 0 -- -- 72
2018-11-15 19:00:00 16.2 8 Este 24 Este 0 -- -- 71
2018-11-15 18:00:00 17.4 9 Este 19 Sudeste 0 -- -- 66
2018-11-15 17:00:00 19.3 5 Sudeste 13 Sudeste 0 -- -- 60
2018-11-15 16:00:00 19.6 8 Sudeste 17 Sudoeste 0 -- -- 60
2018-11-15 15:00:00 20.2 9 Sur 18 Sur 0 -- -- 58
2018-11-15 14:00:00 21 6 Sudeste 14 Sudeste 0 -- -- 61
2018-11-15 13:00:00 20.3 3 Sudeste 14 Sudeste 0 -- -- 62
2018-11-15 12:00:00 19.8 6 Este 15 Este 0 -- -- 64
2018-11-15 11:00:00 18.4 5 Sudeste 13 Sudeste 0 -- -- 70
2018-11-15 10:00:00 16.2 6 Este 12 Sudeste 0 -- -- 79
2018-11-15 09:00:00 14.6 4 Este 12 Este 0 -- -- 86
2018-11-15 08:00:00 14 6 Este 14 Este 0 -- -- 88
2018-11-15 07:00:00 14.3 6 Este 21 Este 0 -- -- 88
2018-11-15 06:00:00 14.7 8 Sudeste 16 Este 0 -- -- 86
2018-11-15 05:00:00 14.8 9 Este 18 Este 0 -- -- 84
2018-11-15 04:00:00 15.3 7 Este 21 Este 0 -- -- 82
2018-11-15 03:00:00 15.6 12 Este 32 Este 0 -- -- 82
2018-11-15 02:00:00 15.7 14 Este 37 Este 0 -- -- 84
2018-11-15 01:00:00 15.5 12 Este 27 Este 0 -- -- 85
2018-11-15 00:00:00 15.6 13 Este 36 Este 0 -- -- 84
2018-11-14 23:00:00 15.8 12 Este 28 Este 0 -- -- 84
2018-11-14 22:00:00 15.9 12 Este 36 Este 0 -- -- 82
2018-11-14 21:00:00 16.2 18 Este 38 Este 0 -- -- 80
2018-11-14 20:00:00 16 16 Este 35 Este 0 -- -- 82
2018-11-14 19:00:00 16.3 15 Este 39 Este 0 -- -- 80
2018-11-14 18:00:00 16.7 15 Este 33 Este 0 -- -- 78
2018-11-14 17:00:00 17.6 14 Este 40 Este 0 -- -- 76
2018-11-14 16:00:00 17.6 17 Este 48 Este 0 -- -- 77
2018-11-14 15:00:00 18.3 19 Este 49 Este 0 -- -- 74
2018-11-14 14:00:00 18.5 19 Este 44 Este 0 -- -- 76
2018-11-14 13:00:00 17.6 15 Este 45 Este 0 -- -- 78
2018-11-14 12:00:00 18.1 21 Este 47 Este 0 -- -- 76
2018-11-14 11:00:00 17.8 23 Este 60 Este 0 -- -- 77
2018-11-14 10:00:00 17.3 19 Este 46 Este 0 -- -- 78
2018-11-14 09:00:00 16.4 15 Este 42 Este 0 -- -- 81
2018-11-14 08:00:00 15.8 14 Este 51 Este 0 -- -- 83
2018-11-14 07:00:00 16 18 Este 39 Este 0 -- -- 84
2018-11-14 06:00:00 15.5 15 Este 37 Nordeste 0 -- -- 86
2018-11-14 05:00:00 15.4 16 Este 39 Nordeste 0 -- -- 81
2018-11-14 04:00:00 15.7 14 Este 33 Este 0 -- -- 84
2018-11-14 03:00:00 15.3 14 Este 36 Este 0 -- -- 84
2018-11-14 02:00:00 15.7 17 Este -- -- 0 -- -- 82
2018-11-14 01:00:00 15.9 13 Este 28 Este 0 -- -- 84
2018-11-14 00:00:00 15.9 10 Este 29 Nordeste 0 -- -- 82
2018-11-13 23:00:00 15.9 11 Este 39 Este 0 -- -- 79
2018-11-13 22:00:00 16.2 12 Este 31 Este 0 -- -- 83
2018-11-13 21:00:00 16.4 11 Este 24 Este 0 -- -- 82
2018-11-13 20:00:00 16.2 5 Nordeste 33 Este 0 -- -- 82
2018-11-13 19:00:00 16.3 11 Este 27 Este 0 -- -- 82
2018-11-13 18:00:00 16.5 10 Este 30 Este 0 -- -- 80
2018-11-13 17:00:00 16.8 13 Este 33 Este 0 -- -- 78
2018-11-13 16:00:00 17.5 11 Este 40 Este 0 -- -- 74
2018-11-13 15:00:00 18.1 14 Este 33 Este 0 -- -- 70
2018-11-13 14:00:00 18.6 13 Este 35 Este 0 -- -- 64
2018-11-13 13:00:00 18.9 15 Este 33 Este 0 -- -- 62
2018-11-13 12:00:00 18.4 13 Este -- -- 0 -- -- 67
2018-11-13 11:00:00 17.1 8 Este 22 Nordeste 0 -- -- 77
2018-11-13 10:00:00 15.1 9 Este 18 Este 0 -- -- 80
2018-11-13 09:00:00 13.4 5 Nordeste 10 Este 0 -- -- 90
2018-11-13 08:00:00 13.7 2 Sur 8 Sudeste 0 -- -- 91
2018-11-13 07:00:00 13.6 3 Este 6 Este 0 -- -- 89
2018-11-13 06:00:00 13.2 5 Este 8 Este 0 -- -- 88
2018-11-13 05:00:00 13.1 3 Nordeste 9 Nordeste 0.1 -- -- 89
2018-11-13 04:00:00 13.2 4 Nordeste 10 Nordeste 0 -- -- 86
2018-11-13 03:00:00 13.3 3 Nordeste 9 Nordeste 0 -- -- 83
2018-11-13 02:00:00 13.4 5 Nordeste 10 Nordeste 0 -- -- 84
2018-11-13 01:00:00 13.5 3 Nordeste 10 Nordeste 0 -- -- 86
2018-11-13 00:00:00 13.7 3 Norte 12 Norte 0 -- -- 86
2018-11-12 23:00:00 13.5 4 Norte 19 Norte 0 -- -- 85
2018-11-12 22:00:00 13.4 10 Norte 21 Norte 0 -- -- 87
2018-11-12 21:00:00 13.7 9 Norte 18 Norte 0 -- -- 84
2018-11-12 20:00:00 14.3 6 Noroeste 18 Oeste 0 -- -- 81
2018-11-12 19:00:00 14.4 10 Oeste 19 Oeste 0 -- -- 81
2018-11-12 18:00:00 15 8 Oeste 15 Sudoeste 0 -- -- 81
2018-11-12 17:00:00 15.2 10 Sudoeste 17 Oeste 0 -- -- 73
2018-11-12 16:00:00 15.8 4 Sudeste 11 Este 0 -- -- 77
2018-11-12 15:00:00 16.2 5 Este 11 Sudeste 0 -- -- 79
2018-11-12 14:00:00 15.1 4 Este 6 Este 0 -- -- 83
2018-11-12 13:00:00 14.6 3 Este 6 Este 0 -- -- 91
2018-11-12 12:00:00 13.7 2 Este 12 Este 0 -- -- 94
2018-11-12 11:00:00 13.1 5 Este 12 Este 0.3 -- -- 92
2018-11-12 10:00:00 13.3 3 Norte 18 Norte 0.1 -- -- 92
2018-11-12 09:00:00 13.5 6 Noroeste 27 Oeste 1.3 -- -- 95
2018-11-12 08:00:00 13.5 9 Oeste 33 Sudeste 3.5 -- -- 95
2018-11-12 07:00:00 14.1 15 Sudeste 26 Sudeste 0 -- -- 92
2018-11-12 06:00:00 14.8 13 Sur 27 Sur 0 -- -- 91
2018-11-12 05:00:00 14.5 13 Sur 27 Sudeste 0 -- -- 94
2018-11-12 04:00:00 14.7 9 Sur 21 Sur 0 -- -- 92
2018-11-12 03:00:00 14.7 10 Sur 18 Sudeste 0 -- -- 95
2018-11-12 02:00:00 14.5 8 Sur 18 Sudeste 0 -- -- 95
2018-11-12 01:00:00 14.5 8 Sudeste 12 Sudeste 0 -- -- 93
2018-11-12 00:00:00 14.8 7 Sur 15 Sur 0 -- -- 92
2018-11-11 23:00:00 14.9 7 Sur 14 Sur 0 -- -- 92
2018-11-11 22:00:00 15 10 Sudoeste 16 Sudoeste 0 -- -- 91
2018-11-11 21:00:00 14.6 8 Sudoeste 12 Sudoeste 0 -- -- 91
2018-11-11 20:00:00 15.1 5 Sudoeste 12 Sur 0 -- -- 89
2018-11-11 19:00:00 15.2 6 Sudoeste 11 Sudoeste 0 -- -- 90
2018-11-11 18:00:00 16.3 8 Sudoeste 21 Sudoeste 0 -- -- 83
2018-11-11 17:00:00 18.5 12 Sudoeste 22 Oeste 0 -- -- 73
2018-11-11 16:00:00 19.7 8 Sudoeste 15 Sur 0 -- -- 68
2018-11-11 15:00:00 18.7 9 Sudoeste 18 Sudoeste 0 -- -- 74
2018-11-11 14:00:00 19.6 7 Sur 13 Sudeste 0 -- -- 71
2018-11-11 13:00:00 21.1 3 Este 12 Sudeste 0 -- -- 60
2018-11-11 12:00:00 20.1 5 Sudeste 10 Este 0 -- -- 61
2018-11-11 11:00:00 18.8 2 Sur 6 Sur 0 -- -- 73
2018-11-11 10:00:00 16.9 3 Sur 8 Sur 0 -- -- 84
2018-11-11 09:00:00 15.7 5 Sur 12 Sur 0 -- -- 91
2018-11-11 08:00:00 15.5 3 Sur 7 Sudoeste 0 -- -- 91
2018-11-11 07:00:00 15.6 4 Sudoeste 6 Sudoeste 0 -- -- 91
2018-11-11 06:00:00 15.8 3 Sudoeste 5 Sudoeste 0 -- -- 91
2018-11-11 05:00:00 15.6 4 Sudoeste 9 Sudoeste 0 -- -- 91
2018-11-11 04:00:00 15.3 4 Sudoeste 10 Sudoeste 0 -- -- 91
2018-11-11 03:00:00 15.2 4 Sudoeste 9 Sudoeste 0 -- -- 91
2018-11-11 02:00:00 15.2 6 Oeste 12 Oeste 0 -- -- 91
2018-11-11 01:00:00 14.9 6 Oeste 15 Sudoeste 0 -- -- 90
2018-11-11 00:00:00 15.1 10 Sudoeste 18 Sudoeste 0 -- -- 89
2018-11-10 23:00:00 15.1 11 Sudoeste 17 Sudoeste 0 -- -- 88
2018-11-10 22:00:00 15.3 10 Sudoeste 14 Sudoeste 0 -- -- 86
2018-11-10 21:00:00 14.9 9 Sudoeste 17 Oeste 0 -- -- 88
2018-11-10 20:00:00 15.2 9 Oeste 19 Oeste 0 -- -- 85
2018-11-10 19:00:00 15.4 10 Oeste 21 Sudoeste 0 -- -- 83
2018-11-10 18:00:00 16.1 12 Oeste 24 Oeste 0 -- -- 76
2018-11-10 17:00:00 17.2 14 Oeste 25 Sudoeste 0 -- -- 71
2018-11-10 16:00:00 17.2 13 Oeste 24 Oeste 0 -- -- 71
2018-11-10 15:00:00 17.6 14 Oeste 25 Oeste 0 -- -- 69
2018-11-10 14:00:00 17.6 15 Oeste 27 Sudoeste 0 -- -- 70
2018-11-10 13:00:00 17.4 12 Oeste 22 Sudoeste 0 -- -- 69
2018-11-10 12:00:00 17.1 11 Oeste 19 Oeste 0 -- -- 71
2018-11-10 11:00:00 16.2 2 Sudoeste 9 Sudoeste 0 -- -- 76
2018-11-10 10:00:00 14.2 0 Calma 5 Norte 0 -- -- 85
2018-11-10 09:00:00 14 2 Norte 8 Oeste 0 -- -- 83
2018-11-10 08:00:00 13.7 5 Oeste 9 Oeste 0 -- -- 84
2018-11-10 07:00:00 13.2 5 Oeste 10 Oeste 0 -- -- 85
2018-11-10 06:00:00 12.9 5 Oeste 9 Oeste 0 -- -- 84
2018-11-10 05:00:00 13.1 6 Oeste 9 Oeste 0 -- -- 83
2018-11-10 04:00:00 12.7 5 Oeste 8 Oeste 0 -- -- 82
2018-11-10 03:00:00 13.1 5 Oeste 9 Oeste 0 -- -- 77
2018-11-10 02:00:00 13 6 Oeste 9 Oeste 0 -- -- 76
2018-11-10 01:00:00 12.9 5 Oeste 9 Oeste 0 -- -- 76
2018-11-10 00:00:00 13.2 6 Oeste 9 Oeste 0 -- -- 76
2018-11-09 23:00:00 13.1 6 Oeste 12 Oeste 0 -- -- 77
2018-11-09 22:00:00 13.2 8 Oeste 15 Oeste 0 -- -- 77
2018-11-09 21:00:00 13.2 9 Oeste 17 Oeste 0 -- -- 76
2018-11-09 20:00:00 12.9 9 Oeste 16 Oeste 0 -- -- 78
2018-11-09 19:00:00 13 8 Oeste 17 Oeste 0 -- -- 77
2018-11-09 18:00:00 13.9 12 Oeste 22 Oeste 0 -- -- 70
2018-11-09 17:00:00 15 13 Oeste 27 Sudoeste 0 -- -- 62
2018-11-09 16:00:00 16 14 Oeste 29 Oeste 0 -- -- 46
2018-11-09 15:00:00 17 10 Oeste 24 Oeste 0 -- -- 47
2018-11-09 14:00:00 16.2 10 Oeste 26 Norte 0 -- -- 48
2018-11-09 13:00:00 15.9 7 Noroeste 22 Oeste 0 -- -- 49
2018-11-09 12:00:00 15.2 6 Noroeste 18 Noroeste 0 -- -- 55
2018-11-09 11:00:00 14.2 5 Noroeste 14 Norte 0 -- -- 64
2018-11-09 10:00:00 12.6 3 Norte 13 Norte 0 -- -- 71
2018-11-09 09:00:00 11 5 Norte 14 Norte 0 -- -- 76
2018-11-09 08:00:00 10.7 7 Norte 19 Noroeste 0 -- -- 75
2018-11-09 07:00:00 10.9 6 Norte 21 Norte 0 -- -- 73
2018-11-09 06:00:00 11.4 10 Noroeste 23 Norte 0 -- -- 72
2018-11-09 05:00:00 11.4 7 Norte 20 Norte 0 -- -- 78
2018-11-09 04:00:00 11.7 8 Noroeste 19 Norte 0 -- -- 78
2018-11-09 03:00:00 12 8 Noroeste 23 Norte 0 -- -- 78
2018-11-09 02:00:00 12.3 10 Noroeste 26 Norte 0 -- -- 77
2018-11-09 01:00:00 12.9 9 Noroeste 23 Norte 0 -- -- 76
2018-11-09 00:00:00 13.2 10 Noroeste 21 Noroeste 0.1 -- -- 79
2018-11-08 23:00:00 13.5 11 Oeste 33 Oeste 0.4 -- -- 90
2018-11-08 22:00:00 14 17 Oeste 37 Oeste 4 -- -- 86
2018-11-08 21:00:00 15.4 18 Oeste 33 Oeste 0 -- -- 79
2018-11-08 20:00:00 15.1 15 Oeste 28 Sudoeste 0 -- -- 80
2018-11-08 19:00:00 15.2 11 Oeste 31 Oeste 0 -- -- 85
2018-11-08 18:00:00 14.8 12 Sudoeste 26 Sudoeste 0.7 -- -- 94
2018-11-08 17:00:00 15 14 Sudoeste 27 Sudoeste 0.4 -- -- 95
2018-11-08 16:00:00 14.3 12 Oeste 36 Oeste 3 -- -- 94
2018-11-08 15:00:00 14.8 22 Sudoeste 42 Sudoeste 1.7 -- -- 94
2018-11-08 14:00:00 15.9 18 Sur 39 Sudoeste 0 -- -- 86
2018-11-08 13:00:00 15.9 17 Sudoeste 32 Sur 0 -- -- 84
2018-11-08 12:00:00 16.3 17 Sur 30 Sur 0 -- -- 82
2018-11-08 11:00:00 16.3 10 Sur 24 Sur 0 -- -- 83
2018-11-08 10:00:00 16.1 10 Sur 24 Sudeste 0 -- -- 85
2018-11-08 09:00:00 15.3 10 Sudeste 21 Sudeste 0 -- -- 91
2018-11-08 08:00:00 14.5 10 Sudeste 21 Sur 0 -- -- 92
2018-11-08 07:00:00 14.5 9 Sudeste 15 Sur 0 -- -- 92
2018-11-08 06:00:00 14.5 7 Sur 14 Sudeste 0 -- -- 91
2018-11-08 05:00:00 14.6 6 Sudeste 11 Sudeste 0 -- -- 94
2018-11-08 04:00:00 14.6 4 Sur 9 Sur 0 -- -- 94
2018-11-08 03:00:00 14.8 3 Sudeste 12 Sudoeste 0 -- -- 93
2018-11-08 02:00:00 15 8 Sudoeste 12 Sudoeste 0 -- -- 92
2018-11-08 01:00:00 14.8 4 Sur 11 Sur 0 -- -- 95
2018-11-08 00:00:00 14.6 3 Sur 7 Sur 0 -- -- 95
2018-11-07 23:00:00 14.4 3 Sur 5 Sur 0.1 -- -- 95
2018-11-07 22:00:00 14.6 0 Calma 5 Sur 0 -- -- 95
2018-11-07 21:00:00 14.6 2 Sur 10 Sudoeste 0.3 -- -- 95
2018-11-07 20:00:00 14.7 5 Sudoeste 10 Sudoeste 0.2 -- -- 95
2018-11-07 19:00:00 14.6 4 Sudoeste 9 Oeste 0.1 -- -- 95
2018-11-07 18:00:00 14.8 7 Oeste 29 Sudoeste 0.1 -- -- 95
2018-11-07 17:00:00 14.5 17 Sudoeste 32 Sudoeste 0.6 -- -- 95
2018-11-07 16:00:00 15.4 18 Sudoeste 34 Sudoeste 0.1 -- -- 90
2018-11-07 15:00:00 15 20 Sudoeste 36 Sudoeste 0.1 -- -- 92
2018-11-07 14:00:00 15.5 17 Sudoeste 35 Sudoeste 0 -- -- 90
2018-11-07 13:00:00 15 23 Sudoeste 36 Sudoeste 0 -- -- 89
2018-11-07 12:00:00 15.4 17 Sudoeste 32 Sudoeste 0 -- -- 87
2018-11-07 11:00:00 14.7 15 Sur 33 Sur 0 -- -- 88
2018-11-07 10:00:00 15.6 13 Sur 30 Sur 0 -- -- 84
2018-11-07 09:00:00 15 14 Sur 28 Sur 0 -- -- 86
2018-11-07 08:00:00 15 12 Sudoeste 22 Sudoeste 0 -- -- 76
2018-11-07 07:00:00 14.3 9 Sur 18 Sur 0 -- -- 89
2018-11-07 06:00:00 13.8 9 Sur 17 Sur 0 -- -- 91
2018-11-07 05:00:00 13.8 7 Sur 14 Sudoeste 0 -- -- 90
2018-11-07 04:00:00 13.7 7 Sudoeste 13 Sudoeste 0 -- -- 83
2018-11-07 03:00:00 12.9 6 Sudoeste 12 Sudoeste 0 -- -- 85
2018-11-07 02:00:00 12.6 4 Sur 10 Sudoeste 0 -- -- 84
2018-11-07 01:00:00 13.1 5 Sudoeste 9 Sudoeste 0 -- -- 80
2018-11-07 00:00:00 13.2 5 Sudoeste 9 Oeste 0 -- -- 79
2018-11-06 23:00:00 13 5 Sudoeste 7 Sudoeste 0 -- -- 81
2018-11-06 22:00:00 13.1 5 Sudoeste 7 Oeste 0 -- -- 82
2018-11-06 21:00:00 13.2 5 Oeste 7 Oeste 0 -- -- 82
2018-11-06 20:00:00 13.6 4 Oeste 8 Oeste 0 -- -- 79
2018-11-06 19:00:00 14 4 Oeste 11 Sudoeste 0 -- -- 75
2018-11-06 18:00:00 15.4 8 Sudoeste 17 Sudoeste 0 -- -- 66
2018-11-06 17:00:00 17.1 9 Sudoeste 21 Oeste 0 -- -- 61
2018-11-06 16:00:00 17.6 9 Oeste 21 Sudoeste 0 -- -- 60
2018-11-06 15:00:00 18 10 Oeste 19 Oeste 0 -- -- 59
2018-11-06 14:00:00 16.9 5 Sudoeste 14 Sudoeste 0 -- -- 62
2018-11-06 13:00:00 15.6 3 Sudoeste 9 Sudoeste 0 -- -- 67
2018-11-06 12:00:00 15.4 2 Este 8 Este 0 -- -- 65
2018-11-06 11:00:00 13.6 4 Este 9 Este 0 -- -- 73
2018-11-06 10:00:00 12.9 4 Norte 6 Norte 0 -- -- 72
2018-11-06 09:00:00 11.7 2 Norte 6 Norte 0 -- -- 78
2018-11-06 08:00:00 10 2 Nordeste 6 Nordeste 0 -- -- 80
2018-11-06 07:00:00 9.9 2 Nordeste 5 Nordeste 0 -- -- 80
2018-11-06 06:00:00 10.2 0 Calma 7 Nordeste 0 -- -- 79
2018-11-06 05:00:00 11.3 2 Norte 10 Norte 0 -- -- 73
2018-11-06 04:00:00 11.5 3 Norte 13 Norte 0 -- -- 72
2018-11-06 03:00:00 11.7 0 Calma 13 Norte 0 -- -- 72
2018-11-06 02:00:00 12.6 5 Noroeste 18 Oeste 0 -- -- 67
2018-11-06 01:00:00 13.1 8 Oeste 17 Noroeste 0 -- -- 66
2018-11-06 00:00:00 13.3 8 Noroeste 16 Oeste 0 -- -- 65
2018-11-05 23:00:00 13.4 11 Oeste 24 Noroeste 0 -- -- 64
2018-11-05 22:00:00 13.6 15 Oeste 30 Oeste 0 -- -- 64
2018-11-05 21:00:00 12.8 9 Oeste 26 Oeste 0 -- -- 72
2018-11-05 20:00:00 13 9 Oeste 23 Oeste 0 -- -- 69
2018-11-05 19:00:00 13.1 11 Oeste 26 Oeste 0 -- -- 68
2018-11-05 18:00:00 13.6 7 Oeste 29 Oeste 0 -- -- 60
2018-11-05 17:00:00 14.5 15 Oeste 33 Noroeste 0 -- -- 55
2018-11-05 16:00:00 15.8 17 Oeste 40 Oeste 0 -- -- 54
2018-11-05 15:00:00 15.6 18 Oeste 41 Oeste 0 -- -- 53
2018-11-05 14:00:00 15.2 16 Noroeste 37 Oeste 0 -- -- 53
2018-11-05 13:00:00 14.6 18 Oeste 39 Noroeste 0.1 -- -- 54
2018-11-05 12:00:00 14.8 13 Oeste 33 Oeste 0 -- -- 61
2018-11-05 11:00:00 13.5 8 Noroeste 19 Norte 0 -- -- 76
2018-11-05 10:00:00 12 7 Noroeste 21 Norte 0 -- -- 84
2018-11-05 09:00:00 11.5 5 Noroeste 14 Noroeste 0.9 -- -- 88
2018-11-05 08:00:00 11.1 6 Noroeste 15 Norte 0.5 -- -- 90
2018-11-05 07:00:00 10.8 8 Noroeste 37 Oeste 1.3 -- -- 91
2018-11-05 06:00:00 11.4 18 Noroeste 56 Oeste 5.2 -- -- 94
2018-11-05 05:00:00 13.3 27 Oeste 60 Sudoeste 7.9 -- -- 95
2018-11-05 04:00:00 15.6 31 Sudoeste 49 Sur 0 -- -- 80
2018-11-05 03:00:00 14.3 29 Sudoeste 46 Sudoeste 0 -- -- 83
2018-11-05 02:00:00 15.8 20 Sudoeste 32 Sudoeste 0 -- -- 78
2018-11-05 01:00:00 15.5 16 Sudoeste 25 Sudoeste 0 -- -- 80
2018-11-05 00:00:00 15.4 13 Sudoeste 23 Sudoeste 0 -- -- 78
2018-11-04 23:00:00 15.5 11 Sudoeste 18 Sudoeste 0 -- -- 78
2018-11-04 22:00:00 15.5 9 Sudoeste 20 Sudoeste 0 -- -- 79
2018-11-04 21:00:00 15.7 10 Oeste 27 Oeste 0 -- -- 80
2018-11-04 20:00:00 15.9 13 Oeste 25 Oeste 0 -- -- 80
2018-11-04 19:00:00 16.2 13 Oeste 27 Oeste 0 -- -- 79
2018-11-04 18:00:00 16.5 17 Oeste 28 Sudoeste 0 -- -- 77
2018-11-04 17:00:00 16.8 12 Sudoeste 22 Sudoeste 0 -- -- 75
2018-11-04 16:00:00 18.2 12 Sudoeste 26 Oeste 0 -- -- 65
2018-11-04 15:00:00 18.9 13 Oeste 26 Oeste 0 -- -- 64
2018-11-04 14:00:00 17.8 10 Oeste 21 Oeste 0 -- -- 72
2018-11-04 13:00:00 17.7 10 Oeste 21 Oeste 0 -- -- 74
2018-11-04 12:00:00 17.1 6 Oeste 13 Oeste 0 -- -- 78
2018-11-04 11:00:00 16.5 3 Noroeste 13 Oeste 0 -- -- 84
2018-11-04 10:00:00 16 6 Oeste 12 Oeste 0 -- -- 88
2018-11-04 09:00:00 14.9 5 Oeste 13 Oeste 0 -- -- 90
2018-11-04 08:00:00 14.3 7 Oeste 14 Oeste 0 -- -- 91
2018-11-04 07:00:00 14 7 Oeste 18 Oeste 0 -- -- 95
2018-11-04 06:00:00 13.7 7 Oeste 16 Oeste 0 -- -- 96
2018-11-04 05:00:00 13.1 0 Calma 8 Norte 0 -- -- 95
2018-11-04 04:00:00 13.5 2 Norte 8 Norte 0 -- -- 94
2018-11-04 03:00:00 13.9 2 Norte 16 Norte 0 -- -- 93
2018-11-04 02:00:00 14.4 6 Noroeste 12 Noroeste 0 -- -- 92
2018-11-04 01:00:00 14.6 4 Noroeste 10 Noroeste 0 -- -- 91
2018-11-04 00:00:00 15 5 Noroeste 11 Noroeste 0 -- -- 86
2018-11-03 23:00:00 15.3 6 Noroeste 11 Norte 0 -- -- 88
2018-11-03 22:00:00 15.3 5 Noroeste 12 Noroeste 0 -- -- 89
2018-11-03 21:00:00 15.4 7 Oeste 14 Oeste 0 -- -- 91
2018-11-03 20:00:00 15.6 8 Oeste 14 Oeste 0 -- -- 91
2018-11-03 19:00:00 16.2 8 Oeste 18 Oeste 0 -- -- 90
2018-11-03 18:00:00 17.2 12 Oeste 23 Oeste 0 -- -- 80
2018-11-03 17:00:00 19.1 11 Oeste 21 Oeste 0 -- -- 72
2018-11-03 16:00:00 20.3 7 Oeste 14 Oeste 0 -- -- 70
2018-11-03 15:00:00 20.3 4 Sudeste 9 Sudeste 0 -- -- 67
2018-11-03 14:00:00 18.7 6 Sudoeste 14 Oeste 0 -- -- 74
2018-11-03 13:00:00 19.4 5 Sudeste 12 Este 0 -- -- 66
2018-11-03 12:00:00 17.9 4 Este 11 Este 0 -- -- 71
2018-11-03 11:00:00 16.6 3 Sudeste 9 Nordeste 0 -- -- 79
2018-11-03 10:00:00 14.8 3 Norte 12 Norte 0 -- -- 85
2018-11-03 09:00:00 13.7 4 Nordeste 11 Nordeste 0 -- -- 89
2018-11-03 08:00:00 12.9 4 Nordeste 10 Noroeste 0 -- -- 94
2018-11-03 07:00:00 13 5 Noroeste 13 Norte 0 -- -- 94
2018-11-03 06:00:00 13.5 9 Norte 16 Norte 0 -- -- 94
2018-11-03 05:00:00 14 9 Norte 19 Norte 0 -- -- 92
2018-11-03 04:00:00 14.3 7 Noroeste 23 Norte 0 -- -- 92
2018-11-03 03:00:00 14.2 6 Noroeste 19 Noroeste 0 -- -- 92
2018-11-03 02:00:00 14.8 8 Noroeste 19 Norte 0 -- -- 90
2018-11-03 01:00:00 15.2 7 Noroeste 16 Noroeste 0 -- -- 89
2018-11-03 00:00:00 15.3 6 Noroeste 14 Oeste 0 -- -- 90
2018-11-02 23:00:00 14.7 6 Oeste 10 Oeste 0 -- -- 91
2018-11-02 22:00:00 15.6 6 Noroeste 24 Oeste 0 -- -- 87
2018-11-02 21:00:00 15.3 14 Oeste 22 Oeste 0 -- -- 88
2018-11-02 20:00:00 15.3 13 Oeste 23 Oeste 0 -- -- 88
2018-11-02 19:00:00 15.3 13 Oeste 24 Oeste 0 -- -- 85
2018-11-02 18:00:00 15.3 11 Oeste 21 Oeste 0 -- -- 83
2018-11-02 17:00:00 15.4 14 Oeste 28 Oeste 0 -- -- 81
2018-11-02 16:00:00 15.8 14 Oeste 25 Oeste 0 -- -- 77
2018-11-02 15:00:00 16.1 11 Noroeste 25 Noroeste 0 -- -- 76
2018-11-02 14:00:00 15.8 11 Noroeste 26 Oeste 0 -- -- 76
2018-11-02 13:00:00 16.2 8 Noroeste 25 Norte 0 -- -- 75
2018-11-02 12:00:00 16.6 11 Noroeste 26 Oeste 0 -- -- 71
2018-11-02 11:00:00 15.5 12 Oeste 23 Oeste 0 -- -- 79
2018-11-02 10:00:00 14.1 6 Oeste 13 Oeste 0 -- -- 85
2018-11-02 09:00:00 12.8 5 Norte 14 Norte 0 -- -- 90
2018-11-02 08:00:00 11.9 8 Oeste 15 Oeste 0 -- -- 90
2018-11-02 07:00:00 11.9 6 Oeste 18 Norte 0 -- -- 89
2018-11-02 06:00:00 12.5 8 Norte 19 Norte 0 -- -- 85
2018-11-02 05:00:00 12.7 9 Norte 22 Norte 0 -- -- 83
2018-11-02 04:00:00 13.1 8 Noroeste 20 Norte 0 -- -- 78
2018-11-02 03:00:00 13.6 9 Noroeste 19 Norte 0 -- -- 71
2018-11-02 02:00:00 13.7 10 Noroeste 22 Norte 0 -- -- 67
2018-11-02 01:00:00 13.4 6 Noroeste 17 Noroeste 0 -- -- 67
2018-11-02 00:00:00 13.1 6 Oeste 13 Noroeste 0 -- -- 72
2018-11-01 23:00:00 13.6 6 Noroeste 14 Oeste 0 -- -- 70
2018-11-01 22:00:00 13.5 6 Oeste 19 Oeste 0 -- -- 68
2018-11-01 21:00:00 13.5 8 Oeste 19 Oeste 0 -- -- 67
2018-11-01 20:00:00 13.3 9 Oeste 17 Oeste 0 -- -- 71
2018-11-01 19:00:00 13.4 9 Oeste 21 Noroeste 0 -- -- 71
2018-11-01 18:00:00 14.5 13 Oeste 24 Oeste 0 -- -- 64
2018-11-01 17:00:00 16.3 13 Oeste 25 Oeste 0 -- -- 56
2018-11-01 16:00:00 17.1 11 Noroeste 25 Oeste 0 -- -- 48
2018-11-01 15:00:00 17.3 5 Norte 21 Norte 0 -- -- 49
2018-11-01 14:00:00 16.7 6 Noroeste 18 Noroeste 0 -- -- 52
2018-11-01 13:00:00 15.7 6 Noroeste 19 Noroeste 0 -- -- 57
2018-11-01 12:00:00 14.4 5 Noroeste 18 Norte 0 -- -- 63
2018-11-01 11:00:00 12.6 9 Norte 19 Norte 0 -- -- 73
2018-11-01 10:00:00 11.1 8 Norte 22 Norte 0 -- -- 84
2018-11-01 09:00:00 9.5 11 Norte 22 Norte 0 -- -- 89
2018-11-01 08:00:00 8.5 11 Norte 19 Norte 0 -- -- 95
2018-11-01 07:00:00 9.6 10 Norte 22 Norte 0 -- -- 90
2018-11-01 06:00:00 9.6 7 Noroeste 19 Oeste 0 -- -- 93
2018-11-01 05:00:00 10.8 7 Noroeste 16 Oeste 0 -- -- 84
2018-11-01 04:00:00 11.3 7 Noroeste 17 Noroeste 0 -- -- 83
2018-11-01 03:00:00 11.5 5 Noroeste 12 Noroeste 0 -- -- 83
2018-11-01 02:00:00 10.9 5 Noroeste 14 Noroeste 0 -- -- 92
2018-11-01 01:00:00 11 6 Norte 13 Norte 0 -- -- 94
2018-11-01 00:00:00 11 4 Noroeste 15 Noroeste 0 -- -- 93
2018-10-31 23:00:00 10.8 12 Oeste 18 Oeste 0 -- -- 92
2018-10-31 22:00:00 10.8 11 Sudoeste 18 Oeste 0 -- -- 94
2018-10-31 21:00:00 11.5 14 Oeste 51 Oeste 0 -- -- 94
2018-10-31 20:00:00 15.1 29 Oeste 64 Sudoeste 0.1 -- -- 83
2018-10-31 19:00:00 16.2 32 Sudoeste 67 Sudoeste 0 -- -- 83
2018-10-31 18:00:00 15.7 37 Sudoeste 72 Sudoeste 37.1 -- -- 93
2018-10-31 17:00:00 12.6 22 Sudeste 50 Sudeste 18 -- -- 96
2018-10-31 16:00:00 12.3 16 Sur 40 Sur 0.9 -- -- 96
2018-10-31 15:00:00 11.4 10 Sur 23 Sudoeste 4.5 -- -- 94
2018-10-31 14:00:00 11.2 12 Sudoeste 23 Sudoeste 2.9 -- -- 91
2018-10-31 13:00:00 11.5 8 Oeste 25 Oeste 1 -- -- 88
2018-10-31 12:00:00 11.8 6 Oeste 23 Sudoeste 0.5 -- -- 78
2018-10-31 11:00:00 12.5 6 Oeste 12 Oeste 0 -- -- 68
2018-10-31 10:00:00 12 2 Noroeste 7 Sur 0 -- -- 72
2018-10-31 09:00:00 10.3 4 Sur 11 Sur 0 -- -- 77
2018-10-31 08:00:00 10.3 2 Norte 14 Noroeste 0 -- -- 71
2018-10-31 07:00:00 11 6 Noroeste 20 Noroeste 0 -- -- 67
2018-10-31 06:00:00 11.1 11 Noroeste 25 Noroeste 0 -- -- 65
2018-10-31 05:00:00 11.3 9 Noroeste 25 Noroeste 0 -- -- 66
2018-10-31 04:00:00 11.9 14 Oeste 35 Oeste 0 -- -- 63
2018-10-31 03:00:00 12 14 Oeste 34 Noroeste 0 -- -- 61
2018-10-31 02:00:00 12.1 19 Oeste 41 Oeste 0 -- -- 59
2018-10-31 01:00:00 12 18 Oeste 36 Oeste 0 -- -- 62
2018-10-31 00:00:00 11.7 11 Noroeste 24 Noroeste 0 -- -- 65
2018-10-30 23:00:00 11.8 12 Noroeste 32 Oeste 0 -- -- 64
2018-10-30 22:00:00 11.8 17 Oeste 35 Oeste 0 -- -- 62
2018-10-30 21:00:00 11.8 18 Oeste 36 Oeste 0 -- -- 62
2018-10-30 20:00:00 11.8 17 Oeste 40 Oeste 0 -- -- 70
2018-10-30 19:00:00 12.4 20 Oeste 40 Oeste 0 -- -- 66
2018-10-30 18:00:00 13 16 Oeste 40 Oeste 0 -- -- 67
2018-10-30 17:00:00 14 14 Oeste 33 Noroeste 0.1 -- -- 71
2018-10-30 16:00:00 13.4 10 Oeste 22 Oeste 0 -- -- 85
2018-10-30 15:00:00 12.4 7 Noroeste 43 Sudoeste 6.8 -- -- 91
2018-10-30 14:00:00 12.9 13 Sudoeste 40 Sur 2.7 -- -- 90
2018-10-30 13:00:00 12.4 23 Sur 53 Sur 3.6 -- -- 95
2018-10-30 12:00:00 12.3 22 Sur 51 Sur 5.7 -- -- 95
2018-10-30 11:00:00 12.3 16 Sur 57 Sur 21.5 -- -- 95
2018-10-30 10:00:00 11.9 31 Sur 60 Sur 1.5 -- -- 96
2018-10-30 09:00:00 13.1 20 Sur 54 Sudoeste 1.6 -- -- 95
2018-10-30 08:00:00 13.5 28 Sudoeste 51 Sudoeste 2.5 -- -- 90
2018-10-30 07:00:00 13.1 33 Sudoeste 56 Sudoeste 3.8 -- -- 89
2018-10-30 06:00:00 12.6 23 Sur 46 Sudoeste 1.8 -- -- 95
2018-10-30 05:00:00 12.6 26 Sudoeste 59 Sudoeste 2 -- -- 90
2018-10-30 04:00:00 13.8 18 Sudoeste 44 Sudoeste 0.1 -- -- 77
2018-10-30 03:00:00 14.1 26 Sudoeste 44 Sudoeste 0 -- -- 71
2018-10-30 02:00:00 13.8 15 Sudoeste 30 Sudoeste 0 -- -- 72
2018-10-30 01:00:00 13.4 19 Oeste 42 Sudoeste 0 -- -- 72
2018-10-30 00:00:00 12.6 23 Sudoeste 46 Sudoeste 0.1 -- -- 81
2018-10-29 23:00:00 14.3 21 Oeste 36 Oeste 0 -- -- 58
2018-10-29 22:00:00 14.1 17 Oeste 38 Oeste 0 -- -- 56
2018-10-29 21:00:00 14.2 18 Oeste 35 Oeste 0 -- -- 53
2018-10-29 20:00:00 13.9 16 Oeste 35 Oeste 0 -- -- 52
2018-10-29 19:00:00 13.7 14 Oeste 36 Sudoeste 0 -- -- 54
2018-10-29 18:00:00 14 17 Oeste 42 Oeste 0 -- -- 49
2018-10-29 17:00:00 14.8 18 Oeste 43 Oeste 0 -- -- 44
2018-10-29 16:00:00 15.5 18 Oeste 46 Oeste 0 -- -- 44
2018-10-29 15:00:00 14.7 23 Oeste 49 Oeste 0 -- -- 48
2018-10-29 14:00:00 14.5 21 Oeste 47 Oeste 0 -- -- 53
2018-10-29 13:00:00 13.5 16 Oeste 35 Oeste 0 -- -- 58
2018-10-29 12:00:00 13.5 15 Oeste 31 Oeste 0 -- -- 54
2018-10-29 11:00:00 12.5 9 Oeste 19 Oeste 0 -- -- 62
2018-10-29 10:00:00 10.8 5 Noroeste 20 Norte 0 -- -- 70
2018-10-29 09:00:00 9.5 8 Noroeste 24 Norte 0 -- -- 74
2018-10-29 08:00:00 8.8 7 Norte 20 Noroeste 0 -- -- 76
2018-10-29 07:00:00 10.1 7 Noroeste 21 Norte 0 -- -- 71
2018-10-29 06:00:00 10.2 8 Noroeste 27 Noroeste 0 -- -- 61
2018-10-29 05:00:00 9.8 12 Noroeste 27 Norte 0 -- -- 56
2018-10-29 04:00:00 9.8 9 Noroeste 25 Noroeste 0 -- -- 54
2018-10-29 03:00:00 10 10 Noroeste 31 Noroeste 0 -- -- 54
2018-10-29 02:00:00 10.9 13 Noroeste 28 Norte 0 -- -- 48
2018-10-29 01:00:00 11.2 12 Noroeste 28 Norte 0 -- -- 46
2018-10-29 00:00:00 10.9 8 Noroeste 27 Noroeste 0 -- -- 47
2018-10-28 23:00:00 11.2 10 Noroeste 28 Norte 0 -- -- 46
2018-10-28 22:00:00 11.6 10 Noroeste 30 Norte 0 -- -- 46
2018-10-28 21:00:00 11.9 11 Noroeste 26 Norte 0 -- -- 46
2018-10-28 20:00:00 12.1 9 Noroeste 24 Oeste 0 -- -- 47
2018-10-28 19:00:00 12.5 10 Noroeste 24 Norte 0 -- -- 48
2018-10-28 18:00:00 12.5 9 Noroeste 39 Oeste 0.2 -- -- 53
2018-10-28 17:00:00 14.3 12 Noroeste 35 Noroeste 0 -- -- 40
2018-10-28 16:00:00 13.6 13 Noroeste 40 Oeste 0 -- -- 41
2018-10-28 15:00:00 13.3 14 Noroeste 38 Oeste 0 -- -- 43
2018-10-28 14:00:00 13.3 13 Noroeste 39 Oeste 0 -- -- 44
2018-10-28 13:00:00 13.3 14 Noroeste 33 Oeste 0 -- -- 43
2018-10-28 12:00:00 12 8 Noroeste 24 Noroeste 0 -- -- 52
2018-10-28 11:00:00 10.8 7 Noroeste 24 Noroeste 0 -- -- 60
2018-10-28 10:00:00 9.8 9 Norte 26 Noroeste 0 -- -- 66
2018-10-28 09:00:00 8.7 9 Norte 28 Norte 0 -- -- 69
2018-10-28 08:00:00 9 7 Norte 24 Norte 0 -- -- 66
2018-10-28 07:00:00 9.6 10 Norte 24 Norte 0 -- -- 64
2018-10-28 06:00:00 10.2 9 Norte 23 Norte 0 -- -- 62
2018-10-28 05:00:00 11.1 8 Noroeste 25 Norte 0 -- -- 64
2018-10-28 04:00:00 11.7 8 Noroeste 28 Oeste 0 -- -- 65
2018-10-28 03:00:00 11.8 12 Oeste 27 Oeste 0 -- -- 64
2018-10-28 02:00:00 12.2 10 Oeste 30 Noroeste 0 -- -- 61
2018-10-28 01:00:00 13.4 14 Oeste 27 Oeste 0 -- -- 52
2018-10-28 00:00:00 14.4 10 Noroeste 32 Oeste 0 -- -- 49
2018-10-27 23:00:00 15.6 17 Noroeste 41 Oeste 0 -- -- 50
2018-10-27 22:00:00 16.4 18 Oeste 33 Oeste 0 -- -- 54
2018-10-27 21:00:00 16.3 15 Oeste 31 Oeste 0 -- -- 59
2018-10-27 20:00:00 16.2 12 Oeste 36 Oeste 0 -- -- 71
2018-10-27 19:00:00 16.6 16 Oeste 32 Oeste 0 -- -- 70
2018-10-27 18:00:00 17.2 14 Oeste 35 Oeste 0 -- -- 78
2018-10-27 17:00:00 18.2 15 Oeste 39 Oeste 0 -- -- 73
2018-10-27 16:00:00 18.7 17 Oeste 46 Sudoeste 0 -- -- 72
2018-10-27 15:00:00 19.4 18 Oeste 34 Oeste 0 -- -- 73
2018-10-27 14:00:00 19.5 14 Oeste 28 Sudoeste 0 -- -- 71
2018-10-27 13:00:00 18.6 12 Oeste 23 Oeste 0 -- -- 74
2018-10-27 12:00:00 18.5 8 Oeste 19 Oeste 0 -- -- 78
2018-10-27 11:00:00 17.3 4 Noroeste 10 Noroeste 0 -- -- 82
2018-10-27 10:00:00 15.4 4 Oeste 13 Noroeste 0 -- -- 91
2018-10-27 09:00:00 15.3 6 Oeste 14 Oeste 0 -- -- 91
2018-10-27 08:00:00 15.7 5 Noroeste 13 Norte 0.3 -- -- 90
2018-10-27 07:00:00 15.7 7 Noroeste 13 Norte 0 -- -- 88
2018-10-27 06:00:00 16 5 Norte 10 Norte 0 -- -- 88
2018-10-27 05:00:00 16 5 Norte 12 Norte 0 -- -- 90
2018-10-27 04:00:00 16.5 5 Noroeste 12 Norte 0 -- -- 91
2018-10-27 03:00:00 16.6 4 Norte 15 Norte 0 -- -- 91
2018-10-27 02:00:00 16.8 3 Norte 13 Noroeste 0 -- -- 91
2018-10-27 01:00:00 16.9 8 Noroeste 14 Oeste 0 -- -- 92
2018-10-27 00:00:00 17.1 10 Oeste 16 Oeste 0 -- -- 92
2018-10-26 23:00:00 17.5 7 Oeste 12 Oeste 0 -- -- 91
2018-10-26 22:00:00 17.7 8 Oeste 19 Oeste 0 -- -- 91
2018-10-26 21:00:00 18.4 12 Sudoeste 21 Sudoeste 0 -- -- 94
2018-10-26 20:00:00 18.3 12 Sudoeste 21 Sudoeste 0 -- -- 94
2018-10-26 19:00:00 19.3 13 Sudoeste 27 Sudoeste 0 -- -- 86
2018-10-26 18:00:00 20 14 Sudoeste 22 Sur 0 -- -- 77
2018-10-26 17:00:00 20.4 8 Sur 15 Sur 0 -- -- 66
2018-10-26 16:00:00 21 7 Sur 14 Sudeste 0 -- -- 65
2018-10-26 15:00:00 20.6 5 Sudeste 12 Este 0 -- -- 72
2018-10-26 14:00:00 18.2 6 Este 15 Este 0 -- -- 80
2018-10-26 13:00:00 16 5 Nordeste 11 Nordeste 0 -- -- 79
2018-10-26 12:00:00 15.4 5 Este 8 Este 0.3 -- -- 82
2018-10-26 11:00:00 14.7 4 Nordeste 9 Nordeste 2 -- -- 85
2018-10-26 10:00:00 15.5 5 Nordeste 10 Nordeste 0.6 -- -- 82
2018-10-26 09:00:00 16.7 4 Nordeste 9 Nordeste 0 -- -- 64
2018-10-26 08:00:00 17.5 4 Sur 6 Sur 0.3 -- -- 61
2018-10-26 07:00:00 18.1 4 Sur 10 Sudoeste 0 -- -- 55
2018-10-26 06:00:00 18.5 6 Sudoeste 17 Oeste 0 -- -- 52
2018-10-26 05:00:00 18.4 7 Oeste 11 Oeste 0 -- -- 50
2018-10-26 04:00:00 18.7 3 Este 11 Este 0 -- -- 49
2018-10-26 03:00:00 18.7 6 Nordeste 14 Este 0 -- -- 48
2018-10-26 02:00:00 18.6 6 Este 14 Este 0 -- -- 48
2018-10-26 01:00:00 18.5 7 Este 14 Este 0 -- -- 49
2018-10-26 00:00:00 18.7 5 Nordeste 10 Este 0 -- -- 47
2018-10-25 23:00:00 19.1 6 Nordeste 12 Este 0 -- -- 47
2018-10-25 22:00:00 19 6 Este 14 Este 0 -- -- 48
2018-10-25 21:00:00 19.5 7 Este 13 Este 0 -- -- 46
2018-10-25 20:00:00 20.3 6 Este 14 Sudeste 0 -- -- 47
2018-10-25 19:00:00 21.6 7 Este 19 Este 0 -- -- 44
2018-10-25 18:00:00 23.2 8 Este 18 Este 0 -- -- 42
2018-10-25 17:00:00 25.2 6 Sudeste 14 Sur 0 -- -- 41
2018-10-25 16:00:00 26.4 6 Sudeste 17 Sur 0 -- -- 39
2018-10-25 15:00:00 25.7 8 Sudeste 17 Sudeste 0 -- -- 41
2018-10-25 14:00:00 26 6 Sudeste 17 Este 0 -- -- 41
2018-10-25 13:00:00 24.2 9 Este 19 Este 0 -- -- 44
2018-10-25 12:00:00 23 8 Este 24 Este 0 -- -- 53
2018-10-25 11:00:00 19.8 7 Nordeste 17 Este 0 -- -- 63
2018-10-25 10:00:00 18.2 6 Este 14 Nordeste 0 -- -- 68
2018-10-25 09:00:00 16.6 8 Nordeste 14 Nordeste 0 -- -- 73
2018-10-25 08:00:00 16.3 6 Nordeste 14 Nordeste 0 -- -- 74
2018-10-25 07:00:00 16.1 7 Nordeste 16 Nordeste 0 -- -- 75
2018-10-25 06:00:00 15.7 10 Nordeste 17 Nordeste 0 -- -- 77
2018-10-25 05:00:00 15.8 9 Nordeste 18 Nordeste 0 -- -- 79
2018-10-25 04:00:00 16 8 Nordeste 18 Nordeste 0 -- -- 79
2018-10-25 03:00:00 16.2 8 Nordeste 16 Nordeste 0 -- -- 77
2018-10-25 02:00:00 16.3 5 Nordeste 14 Nordeste 0 -- -- 79
2018-10-25 01:00:00 16.8 6 Nordeste 15 Este 0 -- -- 77
2018-10-25 00:00:00 16.9 6 Nordeste 14 Este 0 -- -- 77
2018-10-24 23:00:00 17.4 7 Nordeste 16 Este 0 -- -- 73
2018-10-24 22:00:00 17.6 5 Nordeste 12 Nordeste 0 -- -- 76
2018-10-24 21:00:00 18.2 5 Nordeste 11 Este 0 -- -- 66
2018-10-24 20:00:00 19.2 6 Este 26 Este 0 -- -- 61
2018-10-24 19:00:00 20.9 9 Este 25 Este 0 -- -- 53
2018-10-24 18:00:00 22.7 10 Este 27 Este 0 -- -- 49
2018-10-24 17:00:00 23.9 12 Este 27 Este 0 -- -- 50
2018-10-24 16:00:00 23.8 13 Este 31 Este 0 -- -- 52
2018-10-24 15:00:00 23.8 12 Este 30 Este 0 -- -- 54
2018-10-24 14:00:00 23.4 13 Este 31 Este 0 -- -- 56
2018-10-24 13:00:00 22.2 13 Este 30 Este 0 -- -- 60
2018-10-24 12:00:00 21.5 13 Este 30 Nordeste 0 -- -- 63
2018-10-24 11:00:00 20.2 14 Este 31 Este 0 -- -- 70
2018-10-24 10:00:00 18.7 13 Este 31 Este 0 -- -- 79
2018-10-24 09:00:00 17.2 12 Este 28 Este 0 -- -- 83
2018-10-24 08:00:00 17.1 9 Este 24 Este 0 -- -- 79
2018-10-24 07:00:00 17.7 15 Este 33 Este 0 -- -- 77
2018-10-24 06:00:00 18 17 Este 38 Este 0 -- -- 76
2018-10-24 05:00:00 18.1 13 Este 35 Este 0 -- -- 76
2018-10-24 04:00:00 18.4 15 Este 34 Este 0 -- -- 75
2018-10-24 03:00:00 18.9 16 Este 36 Este 0 -- -- 73
2018-10-24 02:00:00 19.1 14 Este 41 Este 0 -- -- 76
2018-10-24 01:00:00 19.2 21 Este 39 Este 0 -- -- 77
2018-10-24 00:00:00 19.2 13 Este 27 Este 0 -- -- 79
2018-10-23 23:00:00 19.4 12 Este 30 Este 0 -- -- 78
2018-10-23 22:00:00 19.3 13 Este 28 Este 0 -- -- 78
2018-10-23 21:00:00 19.4 12 Este 30 Sudeste 0 -- -- 82
2018-10-23 20:00:00 19.9 14 Este 30 Este 0 -- -- 79
2018-10-23 19:00:00 20.6 9 Este 29 Este 0 -- -- 76
2018-10-23 18:00:00 21.3 13 Este 31 Este 0 -- -- 71
2018-10-23 17:00:00 21.4 13 Este 28 Este 0 -- -- 71
2018-10-23 16:00:00 21.5 13 Este 32 Este 0 -- -- 70
2018-10-23 15:00:00 21.1 15 Este 34 Este 0 -- -- 71
2018-10-23 14:00:00 21.5 14 Este 38 Este 0 -- -- 70
2018-10-23 13:00:00 21.7 14 Este 31 Este 0 -- -- 73
2018-10-23 12:00:00 21 12 Este 24 Este 0 -- -- 80
2018-10-23 11:00:00 19.2 8 Este 27 Este 0.3 -- -- 89
2018-10-23 10:00:00 19.1 15 Este 43 Este 0 -- -- 85
2018-10-23 09:00:00 19.1 15 Este 30 Este 0 -- -- 84
2018-10-23 08:00:00 18.9 13 Este 33 Este 0 -- -- 85
2018-10-23 07:00:00 18.8 13 Este 39 Este 0 -- -- 87
2018-10-23 06:00:00 18.7 13 Este 32 Este 0 -- -- 88
2018-10-23 05:00:00 18.6 13 Este 35 Este 0 -- -- 89
2018-10-23 04:00:00 18.6 14 Este 30 Este 0 -- -- 89
2018-10-23 03:00:00 18.3 12 Este 26 Este 0 -- -- 89
2018-10-23 02:00:00 18.2 10 Este 23 Este 0 -- -- 89
2018-10-23 01:00:00 18.3 9 Este 19 Este 0 -- -- 89
2018-10-23 00:00:00 18.3 6 Este 21 Este 0 -- -- 89
2018-10-22 23:00:00 18.5 7 Este 25 Este 0 -- -- 88
2018-10-22 22:00:00 18.7 7 Este 17 Este 0 -- -- 85
2018-10-22 21:00:00 19.2 8 Este 17 Este 0 -- -- 83
2018-10-22 20:00:00 20.1 6 Este 15 Este 0 -- -- 74
2018-10-22 19:00:00 21.7 5 Este 21 Este 0 -- -- 65
2018-10-22 18:00:00 23.4 8 Este 19 Este 0 -- -- 56
2018-10-22 17:00:00 25.1 6 Este 21 Este 0 -- -- 48
2018-10-22 16:00:00 26.3 8 Sudeste 18 Este 0 -- -- 49
2018-10-22 15:00:00 25.5 6 Este 17 Este 0 -- -- 53
2018-10-22 14:00:00 25.5 5 Este 21 Este 0 -- -- 55
2018-10-22 13:00:00 24.5 9 Este 23 Este 0 -- -- 57
2018-10-22 12:00:00 23.1 10 Este 27 Este 0 -- -- 67
2018-10-22 11:00:00 21 10 Este 22 Este 0 -- -- 77
2018-10-22 10:00:00 19.6 7 Este 19 Este 0 -- -- 85
2018-10-22 09:00:00 18.2 9 Este 23 Sudeste 0 -- -- 90
2018-10-22 08:00:00 18.1 8 Este 21 Este 0 -- -- 90
2018-10-22 07:00:00 18 8 Este 17 Este 0 -- -- 90
2018-10-22 06:00:00 17.9 7 Nordeste 14 Nordeste 0 -- -- 90
2018-10-22 05:00:00 18.1 8 Este 19 Este 0 -- -- 90
2018-10-22 04:00:00 18.3 8 Este 17 Este 0 -- -- 90
2018-10-22 03:00:00 18.3 6 Este 14 Nordeste 0 -- -- 89
2018-10-22 02:00:00 18.4 6 Este 23 Este 0 -- -- 87
2018-10-22 01:00:00 18.4 7 Este 18 Este 0 -- -- 84
2018-10-22 00:00:00 18.9 11 Este 25 Este 0 -- -- 80
2018-10-21 23:00:00 19.1 8 Este 17 Este 0 -- -- 79
2018-10-21 22:00:00 19.3 9 Este 19 Sudeste 0 -- -- 79
2018-10-21 21:00:00 19 8 Este 14 Este 0 -- -- 76
2018-10-21 20:00:00 19.2 7 Este 17 Este 0 -- -- 72
2018-10-21 19:00:00 21 11 Este 25 Este 0 -- -- 68
2018-10-21 18:00:00 23.1 4 Nordeste 10 Nordeste 0 -- -- 63
2018-10-21 17:00:00 22.5 4 Nordeste 15 Oeste 0 -- -- 61
2018-10-21 16:00:00 22.5 7 Oeste 17 Sudoeste 0 -- -- 63
2018-10-21 15:00:00 22.9 2 Nordeste 8 Nordeste 0 -- -- 57
2018-10-21 14:00:00 22.9 0 Calma 11 Sudoeste 0 -- -- 56
2018-10-21 13:00:00 21.8 5 Noroeste 13 Oeste 0 -- -- 62
2018-10-21 12:00:00 20.2 6 Sudoeste 15 Sudoeste 0 -- -- 71
2018-10-21 11:00:00 19.9 8 Sur 17 Sur 0 -- -- 73
2018-10-21 10:00:00 18.7 6 Sur 15 Sur 0 -- -- 86
2018-10-21 09:00:00 17.6 7 Sur 14 Sur 0 -- -- 84
2018-10-21 08:00:00 17.6 8 Sur 12 Sur 0 -- -- 77
2018-10-21 07:00:00 17.7 7 Sudeste 13 Sudeste 0 -- -- 71
2018-10-21 06:00:00 17.8 8 Sudeste 12 Sudeste 0 -- -- 67
2018-10-21 05:00:00 17 6 Este 11 Este 0 -- -- 78
2018-10-21 04:00:00 17.2 4 Nordeste 9 Este 0 -- -- 80
2018-10-21 03:00:00 17.2 5 Nordeste 8 Nordeste 0 -- -- 81
2018-10-21 02:00:00 16.8 5 Nordeste 10 Este 0 -- -- 84
2018-10-21 01:00:00 17 5 Este 11 Este 0 -- -- 83
2018-10-21 00:00:00 16.9 5 Este 13 Sudeste 0 -- -- 84
2018-10-20 23:00:00 17.3 7 Sudeste 12 Sudeste 0 -- -- 84
2018-10-20 22:00:00 18 6 Este 13 Este 0 -- -- 83
2018-10-20 21:00:00 18 4 Este 13 Este 0 -- -- 84
2018-10-20 20:00:00 18.4 5 Nordeste 14 Nordeste 0 -- -- 84
2018-10-20 19:00:00 19.6 6 Nordeste 23 Este 0 -- -- 76
2018-10-20 18:00:00 20.3 9 Este 25 Este 0.1 -- -- 70
2018-10-20 17:00:00 19.2 10 Este 25 Este 0 -- -- 76
2018-10-20 16:00:00 19 8 Este 28 Este 0 -- -- 76
2018-10-20 15:00:00 19.9 11 Este 32 Este 0 -- -- 71
2018-10-20 14:00:00 18.6 16 Este 39 Este 0 -- -- 77
2018-10-20 13:00:00 19.1 6 Este 17 Este 0 -- -- 76
2018-10-20 12:00:00 16.9 5 Este 15 Nordeste 0 -- -- 92
2018-10-20 11:00:00 16.1 5 Nordeste 11 Nordeste 0 -- -- 91
2018-10-20 10:00:00 15.5 5 Nordeste 12 Este 0 -- -- 90
2018-10-20 09:00:00 14.9 4 Nordeste 11 Nordeste 0 -- -- 91
2018-10-20 08:00:00 14.9 5 Nordeste 13 Este 0.1 -- -- 94
2018-10-20 07:00:00 14.6 6 Nordeste 20 Este 0.4 -- -- 95
2018-10-20 06:00:00 14.6 8 Este 20 Nordeste 1.8 -- -- 95
2018-10-20 05:00:00 15 6 Nordeste 22 Este 0.2 -- -- 90
2018-10-20 04:00:00 14.8 8 Nordeste 18 Nordeste 0 -- -- 88
2018-10-20 03:00:00 15 6 Nordeste 16 Nordeste 0 -- -- 89
2018-10-20 02:00:00 14.8 7 Este 18 Nordeste 0.1 -- -- 94
2018-10-20 01:00:00 14.7 6 Este 14 Este 0.3 -- -- 94
2018-10-20 00:00:00 14.5 8 Este 18 Este 0.5 -- -- 94
2018-10-19 23:00:00 14.2 6 Este 17 Este 0 -- -- 89
2018-10-19 22:00:00 14.3 8 Este 18 Este 0 -- -- 87
2018-10-19 21:00:00 14.4 7 Este 25 Este 0 -- -- 85
2018-10-19 20:00:00 15 10 Nordeste 26 Este 0.1 -- -- 86
2018-10-19 19:00:00 17 13 Este 29 Este 0 -- -- 65
2018-10-19 18:00:00 17.6 13 Este 28 Este 0 -- -- 64
2018-10-19 17:00:00 18.5 12 Este 28 Nordeste 0 -- -- 59
2018-10-19 16:00:00 18.4 12 Este 30 Este 0 -- -- 58
2018-10-19 15:00:00 20.1 16 Este 34 Este 0 -- -- 55
2018-10-19 14:00:00 18.8 9 Este 31 Este 0 -- -- 60
2018-10-19 13:00:00 16.3 13 Este 30 Este 0 -- -- 67
2018-10-19 12:00:00 15.4 8 Este 24 Este 0 -- -- 76
2018-10-19 11:00:00 13.7 7 Nordeste 17 Nordeste 0 -- -- 84
2018-10-19 10:00:00 13.2 7 Nordeste 16 Nordeste 0 -- -- 85
2018-10-19 09:00:00 12.4 6 Nordeste 12 Nordeste 0 -- -- 86
2018-10-19 08:00:00 12.8 6 Este 15 Este 0 -- -- 83
2018-10-19 07:00:00 12.3 4 Nordeste 12 Nordeste 0 -- -- 85
2018-10-19 06:00:00 12.6 6 Nordeste 13 Nordeste 0 -- -- 84
2018-10-19 05:00:00 12.5 2 Nordeste 9 Nordeste 0 -- -- 86
2018-10-19 04:00:00 12.5 4 Nordeste 8 Nordeste 0 -- -- 85
2018-10-19 03:00:00 12.6 5 Nordeste 10 Este 0 -- -- 84
2018-10-19 02:00:00 12.6 4 Este 13 Este 0 -- -- 85
2018-10-19 01:00:00 12.9 4 Nordeste 11 Nordeste 0 -- -- 84
2018-10-19 00:00:00 12.8 4 Nordeste 9 Este 0 -- -- 88
2018-10-18 23:00:00 13 5 Este 11 Este 0 -- -- 88
2018-10-18 22:00:00 13.4 6 Este 12 Este 0 -- -- 88
2018-10-18 21:00:00 14.2 6 Sudeste 17 Sur 0 -- -- 83
2018-10-18 20:00:00 14.6 6 Sudeste 19 Sudeste 0 -- -- 83
2018-10-18 19:00:00 15.2 7 Sur 16 Sur 0 -- -- 76
2018-10-18 18:00:00 15.5 7 Sur 20 Sudoeste 0.1 -- -- 79
2018-10-18 17:00:00 14.2 12 Sudoeste 25 Sudoeste 0.3 -- -- 84
2018-10-18 16:00:00 14.7 14 Sudoeste 26 Oeste 0.1 -- -- 82
2018-10-18 15:00:00 14 13 Oeste 32 Oeste 0.6 -- -- 85
2018-10-18 14:00:00 13.6 13 Sudoeste 33 Sudoeste 0.7 -- -- 85
2018-10-18 13:00:00 16.7 12 Oeste 28 Oeste 0 -- -- 73
2018-10-18 12:00:00 15.3 10 Oeste 24 Noroeste 0 -- -- 86
2018-10-18 11:00:00 14.2 12 Oeste 27 Oeste 0.7 -- -- 90
2018-10-18 10:00:00 13.7 0 Calma 11 Norte 0 -- -- 93
2018-10-18 09:00:00 13.4 4 Norte 21 Norte 0.3 -- -- 90
2018-10-18 08:00:00 14 7 Noroeste 19 Noroeste 0 -- -- 92
2018-10-18 07:00:00 15 16 Oeste 49 Sudoeste 9.8 -- -- 94
2018-10-18 06:00:00 17.3 13 Sudoeste 23 Sudoeste 0 -- -- 84
2018-10-18 05:00:00 17.2 7 Sudoeste 21 Oeste 0 -- -- 85
2018-10-18 04:00:00 17.5 12 Oeste 23 Oeste 0 -- -- 85
2018-10-18 03:00:00 17.6 12 Sudoeste 19 Sudoeste 0 -- -- 86
2018-10-18 02:00:00 17.5 10 Sudoeste 16 Sudoeste 0 -- -- 88
2018-10-18 01:00:00 17.5 9 Sudoeste 15 Sudoeste 0 -- -- 88
2018-10-18 00:00:00 17.6 6 Sudoeste 12 Sudoeste 0 -- -- 87